createdAt,value
2018-05-09T00:00:48.728Z,19.71
2018-05-09T00:03:16.135Z,19.66
2018-05-09T00:05:43.560Z,19.63
2018-05-09T00:08:10.972Z,19.59
2018-05-09T00:10:38.385Z,19.54
2018-05-09T00:13:05.788Z,19.52
2018-05-09T00:15:33.207Z,19.48
2018-05-09T00:18:00.604Z,19.45
2018-05-09T00:20:28.035Z,19.43
2018-05-09T00:22:55.432Z,19.40
2018-05-09T00:25:22.852Z,19.37
2018-05-09T00:27:50.273Z,19.33
2018-05-09T00:30:17.684Z,19.30
2018-05-09T00:32:45.089Z,19.24
2018-05-09T00:35:12.506Z,19.21
2018-05-09T00:37:39.910Z,19.22
2018-05-09T00:40:07.325Z,19.20
2018-05-09T00:42:34.742Z,19.19
2018-05-09T00:45:02.164Z,19.15
2018-05-09T00:47:29.576Z,19.11
2018-05-09T00:49:56.992Z,19.07
2018-05-09T00:52:24.393Z,19.03
2018-05-09T00:54:51.809Z,19.01
2018-05-09T00:57:19.222Z,19.00
2018-05-09T00:59:46.679Z,18.99
2018-05-09T01:02:14.087Z,18.98
2018-05-09T01:04:41.492Z,18.97
2018-05-09T01:07:08.908Z,18.96
2018-05-09T01:09:36.321Z,18.96
2018-05-09T01:12:03.736Z,18.95
2018-05-09T01:14:31.144Z,18.93
2018-05-09T01:16:58.565Z,18.92
2018-05-09T01:19:25.969Z,18.91
2018-05-09T01:21:53.388Z,18.90
2018-05-09T01:24:20.796Z,18.89
2018-05-09T01:26:48.215Z,18.84
2018-05-09T01:29:15.625Z,18.82
2018-05-09T01:31:43.039Z,18.78
2018-05-09T01:34:10.445Z,18.76
2018-05-09T01:36:37.860Z,18.73
2018-05-09T01:39:06.165Z,18.73
2018-05-09T01:41:33.576Z,18.71
2018-05-09T01:44:00.983Z,18.70
2018-05-09T01:46:28.400Z,18.67
2018-05-09T01:48:55.802Z,18.64
2018-05-09T01:51:23.212Z,18.61
2018-05-09T01:53:50.622Z,18.57
2018-05-09T01:56:18.032Z,18.53
2018-05-09T01:58:45.439Z,18.49
2018-05-09T02:01:12.860Z,18.48
2018-05-09T02:03:40.264Z,18.45
2018-05-09T02:06:07.739Z,18.42
2018-05-09T02:08:35.082Z,18.39
2018-05-09T02:11:02.505Z,18.36
2018-05-09T02:13:29.908Z,18.32
2018-05-09T02:15:57.384Z,18.29
2018-05-09T02:18:24.788Z,18.24
2018-05-09T02:20:52.203Z,18.19
2018-05-09T02:23:19.604Z,18.15
2018-05-09T02:25:47.020Z,18.10
2018-05-09T02:28:14.421Z,18.07
2018-05-09T02:30:41.842Z,18.00
2018-05-09T02:33:09.256Z,17.92
2018-05-09T02:35:36.656Z,17.84
2018-05-09T02:38:04.065Z,17.78
2018-05-09T02:40:31.472Z,17.69
2018-05-09T02:42:58.891Z,17.61
2018-05-09T02:45:26.296Z,17.53
2018-05-09T02:47:53.712Z,17.47
2018-05-09T02:50:21.113Z,17.43
2018-05-09T02:52:48.529Z,17.39
2018-05-09T02:55:15.936Z,17.33
2018-05-09T02:57:43.348Z,17.27
2018-05-09T03:00:10.761Z,17.21
2018-05-09T03:02:38.173Z,17.16
2018-05-09T03:05:05.585Z,17.12
2018-05-09T03:07:32.997Z,17.05
2018-05-09T03:10:00.409Z,16.99
2018-05-09T03:12:27.811Z,16.93
2018-05-09T03:14:55.214Z,16.86
2018-05-09T03:17:22.628Z,16.80
2018-05-09T03:19:50.041Z,16.76
2018-05-09T03:22:17.453Z,16.71
2018-05-09T03:24:44.861Z,16.65
2018-05-09T03:27:12.275Z,16.61
2018-05-09T03:29:39.770Z,16.55
2018-05-09T03:32:07.093Z,16.50
2018-05-09T03:34:34.504Z,16.44
2018-05-09T03:37:01.905Z,16.40
2018-05-09T03:39:29.312Z,16.34
2018-05-09T03:41:56.715Z,16.29
2018-05-09T03:44:24.136Z,16.22
2018-05-09T03:46:51.540Z,16.18
2018-05-09T03:49:18.952Z,16.13
2018-05-09T03:51:46.369Z,16.08
2018-05-09T03:54:13.788Z,16.05
2018-05-09T03:56:41.187Z,16.03
2018-05-09T03:59:08.632Z,16.03
2018-05-09T04:04:47.468Z,15.95
2018-05-09T04:07:26.682Z,15.93
2018-05-09T04:09:54.815Z,15.90
2018-05-09T04:12:22.226Z,15.88
2018-05-09T04:14:49.711Z,15.88
2018-05-09T04:17:17.086Z,15.87
2018-05-09T04:19:44.508Z,15.86
2018-05-09T04:22:11.919Z,15.87
2018-05-09T04:24:39.325Z,15.88
2018-05-09T04:27:06.747Z,15.90
2018-05-09T04:29:34.214Z,15.93
2018-05-09T04:32:01.569Z,16.00
2018-05-09T04:34:28.973Z,16.05
2018-05-09T04:36:56.384Z,16.10
2018-05-09T04:39:23.797Z,16.15
2018-05-09T04:41:51.246Z,16.20
2018-05-09T04:44:18.625Z,16.24
2018-05-09T04:46:46.045Z,16.29
2018-05-09T04:49:13.544Z,16.34
2018-05-09T04:51:40.867Z,16.39
2018-05-09T04:54:08.269Z,16.43
2018-05-09T04:56:35.683Z,16.50
2018-05-09T04:59:03.089Z,16.59
2018-05-09T05:01:30.505Z,16.68
2018-05-09T05:03:57.916Z,16.77
2018-05-09T05:06:25.325Z,16.89
2018-05-09T05:08:52.728Z,17.00
2018-05-09T05:11:20.149Z,17.09
2018-05-09T05:13:47.556Z,17.21
2018-05-09T05:16:14.961Z,17.31
2018-05-09T05:18:42.381Z,17.42
2018-05-09T05:21:09.789Z,17.51
2018-05-09T05:23:37.205Z,17.65
2018-05-09T05:26:04.611Z,17.77
2018-05-09T05:28:32.029Z,17.90
2018-05-09T05:30:59.440Z,18.04
2018-05-09T05:33:26.857Z,18.14
2018-05-09T05:35:54.269Z,18.23
2018-05-09T05:38:21.672Z,18.33
2018-05-09T05:40:49.084Z,18.42
2018-05-09T05:43:16.497Z,18.50
2018-05-09T05:45:43.900Z,18.61
2018-05-09T05:48:11.321Z,18.71
2018-05-09T05:50:38.728Z,18.83
2018-05-09T05:53:06.144Z,18.96
2018-05-09T05:55:33.549Z,19.05
2018-05-09T05:58:00.964Z,19.13
2018-05-09T06:00:28.377Z,19.23
2018-05-09T06:02:55.793Z,19.35
2018-05-09T06:05:23.199Z,19.46
2018-05-09T06:07:50.637Z,19.58
2018-05-09T06:10:18.069Z,19.64
2018-05-09T06:12:45.501Z,19.75
2018-05-09T06:15:12.904Z,19.84
2018-05-09T06:17:40.316Z,19.95
2018-05-09T06:20:07.732Z,20.06
2018-05-09T06:22:35.150Z,20.20
2018-05-09T06:25:02.574Z,20.34
2018-05-09T06:27:29.985Z,20.49
2018-05-09T06:29:57.402Z,20.59
2018-05-09T06:32:24.813Z,20.71
2018-05-09T06:34:52.234Z,20.85
2018-05-09T06:37:19.636Z,20.99
2018-05-09T06:39:47.064Z,21.15
2018-05-09T06:42:14.477Z,21.33
2018-05-09T06:44:41.900Z,21.49
2018-05-09T06:47:09.317Z,21.60
2018-05-09T06:49:36.733Z,21.71
2018-05-09T06:52:04.150Z,21.86
2018-05-09T06:54:31.573Z,22.06
2018-05-09T06:56:58.984Z,22.25
2018-05-09T06:59:26.404Z,22.37
2018-05-09T07:01:53.825Z,22.51
2018-05-09T07:04:21.243Z,22.65
2018-05-09T07:06:48.754Z,22.77
2018-05-09T07:09:16.092Z,22.84
2018-05-09T07:11:43.510Z,22.94
2018-05-09T07:14:10.935Z,23.08
2018-05-09T07:16:38.339Z,23.22
2018-05-09T07:19:05.765Z,23.33
2018-05-09T07:21:33.185Z,23.57
2018-05-09T07:24:00.611Z,23.74
2018-05-09T07:26:28.030Z,23.98
2018-05-09T07:28:55.460Z,24.17
2018-05-09T07:31:22.873Z,24.26
2018-05-09T07:33:50.302Z,24.36
2018-05-09T07:36:17.713Z,24.42
2018-05-09T07:38:45.133Z,24.54
2018-05-09T07:41:12.555Z,24.73
2018-05-09T07:43:39.981Z,24.89
2018-05-09T07:46:07.400Z,25.11
2018-05-09T07:48:34.819Z,25.38
2018-05-09T07:51:02.239Z,25.66
2018-05-09T07:53:29.652Z,25.82
2018-05-09T07:55:57.076Z,26.03
2018-05-09T07:58:24.493Z,26.22
2018-05-09T08:00:51.921Z,26.33
2018-05-09T08:03:19.341Z,26.41
2018-05-09T08:05:46.772Z,26.51
2018-05-09T08:08:14.184Z,26.73
2018-05-09T08:10:41.614Z,26.88
2018-05-09T08:13:09.024Z,27.17
2018-05-09T08:15:36.452Z,27.46
2018-05-09T08:18:03.867Z,27.69
2018-05-09T08:20:31.292Z,27.92
2018-05-09T08:22:58.700Z,28.17
2018-05-09T08:25:26.120Z,28.48
2018-05-09T08:27:53.540Z,28.66
2018-05-09T08:30:21.062Z,28.73
2018-05-09T08:32:48.393Z,28.79
2018-05-09T08:35:15.818Z,29.00
2018-05-09T08:37:43.232Z,29.04
2018-05-09T08:40:10.672Z,29.03
2018-05-09T08:42:38.085Z,29.11
2018-05-09T08:45:05.507Z,29.20
2018-05-09T08:47:32.919Z,29.22
2018-05-09T08:50:00.345Z,29.26
2018-05-09T08:52:27.755Z,29.39
2018-05-09T08:54:55.190Z,29.75
2018-05-09T08:57:22.601Z,30.05
2018-05-09T08:59:50.016Z,30.23
2018-05-09T09:02:17.428Z,30.26
2018-05-09T09:04:44.853Z,30.22
2018-05-09T09:07:12.268Z,30.29
2018-05-09T09:09:39.692Z,30.32
2018-05-09T09:12:07.109Z,30.23
2018-05-09T09:14:34.531Z,30.31
2018-05-09T09:17:01.936Z,30.49
2018-05-09T09:19:29.362Z,30.63
2018-05-09T09:21:56.769Z,30.76
2018-05-09T09:24:24.192Z,30.91
2018-05-09T09:26:51.601Z,30.92
2018-05-09T09:29:19.123Z,31.01
2018-05-09T09:31:46.433Z,31.08
2018-05-09T09:34:13.844Z,31.34
2018-05-09T09:36:41.264Z,31.54
2018-05-09T09:39:08.682Z,31.50
2018-05-09T09:41:36.104Z,31.56
2018-05-09T09:44:03.516Z,31.69
2018-05-09T09:46:30.940Z,31.72
2018-05-09T09:48:58.368Z,31.91
2018-05-09T09:51:25.796Z,32.20
2018-05-09T09:53:53.218Z,32.65
2018-05-09T09:56:20.641Z,33.03
2018-05-09T09:58:48.077Z,33.11
2018-05-09T10:01:15.495Z,33.19
2018-05-09T10:03:42.913Z,33.35
2018-05-09T10:06:10.335Z,33.36
2018-05-09T10:08:37.757Z,33.45
2018-05-09T10:11:05.179Z,33.32
2018-05-09T10:13:32.601Z,33.26
2018-05-09T10:16:00.070Z,33.23
2018-05-09T10:18:27.440Z,33.13
2018-05-09T10:20:54.871Z,33.10
2018-05-09T10:23:22.360Z,33.00
2018-05-09T10:25:49.716Z,33.05
2018-05-09T10:28:17.125Z,33.17
2018-05-09T10:30:44.552Z,33.43
2018-05-09T10:33:11.969Z,33.75
2018-05-09T10:35:39.396Z,34.03
2018-05-09T10:38:06.827Z,34.02
2018-05-09T10:40:34.257Z,33.90
2018-05-09T10:43:01.685Z,34.09
2018-05-09T10:45:29.132Z,34.00
2018-05-09T10:47:56.560Z,34.02
2018-05-09T10:50:23.994Z,33.97
2018-05-09T10:52:51.411Z,34.17
2018-05-09T10:55:18.849Z,34.08
2018-05-09T10:57:46.278Z,34.26
2018-05-09T11:00:13.713Z,34.37
2018-05-09T11:02:41.168Z,34.40
2018-05-09T11:05:08.677Z,34.38
2018-05-09T11:07:36.024Z,34.24
2018-05-09T11:10:03.445Z,34.39
2018-05-09T11:12:30.883Z,34.42
2018-05-09T11:14:58.306Z,34.18
2018-05-09T11:17:25.745Z,34.17
2018-05-09T11:19:53.168Z,34.13
2018-05-09T11:22:20.617Z,34.18
2018-05-09T11:24:48.044Z,34.44
2018-05-09T11:27:15.504Z,34.72
2018-05-09T11:29:42.928Z,34.88
2018-05-09T11:32:10.373Z,34.91
2018-05-09T11:34:37.792Z,34.74
2018-05-09T11:37:05.232Z,34.53
2018-05-09T11:39:32.660Z,34.38
2018-05-09T11:42:00.093Z,34.51
2018-05-09T11:44:27.525Z,34.61
2018-05-09T11:46:54.951Z,34.86
2018-05-09T11:49:22.372Z,35.01
2018-05-09T11:51:49.805Z,35.04
2018-05-09T11:54:17.224Z,34.96
2018-05-09T11:56:44.681Z,35.10
2018-05-09T11:59:12.104Z,35.33
2018-05-09T12:01:39.539Z,35.30
2018-05-09T12:04:06.957Z,35.23
2018-05-09T12:06:34.388Z,35.18
2018-05-09T12:09:01.797Z,35.21
2018-05-09T12:11:29.229Z,35.14
2018-05-09T12:13:56.644Z,35.19
2018-05-09T12:16:24.092Z,35.34
2018-05-09T12:18:51.525Z,35.50
2018-05-09T12:21:18.956Z,35.57
2018-05-09T12:23:46.372Z,35.59
2018-05-09T12:26:13.798Z,35.54
2018-05-09T12:28:41.217Z,35.54
2018-05-09T12:31:08.649Z,35.43
2018-05-09T12:33:36.073Z,35.40
2018-05-09T12:36:03.529Z,35.52
2018-05-09T12:38:30.949Z,35.58
2018-05-09T12:40:58.376Z,35.65
2018-05-09T12:43:25.800Z,35.66
2018-05-09T12:45:53.224Z,35.56
2018-05-09T12:48:20.649Z,35.46
2018-05-09T12:50:48.073Z,35.39
2018-05-09T12:53:15.500Z,35.23
2018-05-09T12:55:42.916Z,35.16
2018-05-09T12:58:10.333Z,35.07
2018-05-09T13:00:37.753Z,34.99
2018-05-09T13:03:05.189Z,34.78
2018-05-09T13:05:32.612Z,34.68
2018-05-09T13:08:00.044Z,34.87
2018-05-09T13:10:27.472Z,35.11
2018-05-09T13:12:54.900Z,35.21
2018-05-09T13:15:22.311Z,35.16
2018-05-09T13:17:49.749Z,35.22
2018-05-09T13:20:17.168Z,35.26
2018-05-09T13:22:44.593Z,35.12
2018-05-09T13:25:12.011Z,35.03
2018-05-09T13:27:39.449Z,35.31
2018-05-09T13:30:06.873Z,35.44
2018-05-09T13:32:34.306Z,35.46
2018-05-09T13:35:01.741Z,35.56
2018-05-09T13:37:29.178Z,35.55
2018-05-09T13:39:56.649Z,35.47
2018-05-09T13:42:24.024Z,35.31
2018-05-09T13:44:51.436Z,35.15
2018-05-09T13:47:18.873Z,35.17
2018-05-09T13:49:46.289Z,35.30
2018-05-09T13:52:13.717Z,35.22
2018-05-09T13:54:41.137Z,35.05
2018-05-09T13:57:08.564Z,34.99
2018-05-09T13:59:35.984Z,34.97
2018-05-09T14:02:03.413Z,35.09
2018-05-09T14:04:31.002Z,35.01
2018-05-09T14:06:58.459Z,35.01
2018-05-09T14:09:25.884Z,35.09
2018-05-09T14:11:53.313Z,35.07
2018-05-09T14:14:20.740Z,35.07
2018-05-09T14:16:48.184Z,35.01
2018-05-09T14:19:15.608Z,35.03
2018-05-09T14:21:43.024Z,35.15
2018-05-09T14:24:10.457Z,35.12
2018-05-09T14:26:37.879Z,35.02
2018-05-09T14:29:05.308Z,34.92
2018-05-09T14:31:32.733Z,34.81
2018-05-09T14:34:00.156Z,34.81
2018-05-09T14:36:27.583Z,34.80
2018-05-09T14:38:55.037Z,34.81
2018-05-09T14:41:22.462Z,34.81
2018-05-09T14:43:49.900Z,34.45
2018-05-09T14:46:17.324Z,34.24
2018-05-09T14:48:44.757Z,34.17
2018-05-09T14:51:12.196Z,33.97
2018-05-09T14:53:39.638Z,33.88
2018-05-09T14:56:07.074Z,33.68
2018-05-09T14:58:38.341Z,33.56
2018-05-09T15:01:05.751Z,33.49
2018-05-09T15:03:33.199Z,33.39
2018-05-09T15:06:00.626Z,33.40
2018-05-09T15:08:28.056Z,33.40
2018-05-09T15:10:55.473Z,33.55
2018-05-09T15:13:22.909Z,33.68
2018-05-09T15:15:50.321Z,33.59
2018-05-09T15:18:17.778Z,33.41
2018-05-09T15:20:45.193Z,33.23
2018-05-09T15:23:12.638Z,33.19
2018-05-09T15:25:40.065Z,33.07
2018-05-09T15:28:07.497Z,33.02
2018-05-09T15:30:34.922Z,32.93
2018-05-09T15:33:02.356Z,32.76
2018-05-09T15:35:29.772Z,32.54
2018-05-09T15:37:57.201Z,32.43
2018-05-09T15:40:24.622Z,32.19
2018-05-09T15:45:25.917Z,31.99
2018-05-09T15:47:53.344Z,31.85
2018-05-09T15:50:20.834Z,31.68
2018-05-09T15:52:48.196Z,31.53
2018-05-09T15:55:15.618Z,31.35
2018-05-09T15:57:43.079Z,31.25
2018-05-09T16:00:10.446Z,31.31
2018-05-09T16:02:37.860Z,31.34
2018-05-09T16:05:05.280Z,31.31
2018-05-09T16:07:32.716Z,31.34
2018-05-09T16:10:00.146Z,31.42
2018-05-09T16:12:27.555Z,31.45
2018-05-09T16:14:54.977Z,31.44
2018-05-09T16:17:22.388Z,31.39
2018-05-09T16:19:49.820Z,31.33
2018-05-09T16:22:17.288Z,31.16
2018-05-09T16:24:44.693Z,31.00
2018-05-09T16:27:12.112Z,30.93
2018-05-09T16:29:39.541Z,30.86
2018-05-09T16:32:06.956Z,30.85
2018-05-09T16:34:34.377Z,30.90
2018-05-09T16:37:01.797Z,30.94
2018-05-09T16:39:29.216Z,30.96
2018-05-09T16:41:56.636Z,30.94
2018-05-09T16:44:24.056Z,30.91
2018-05-09T16:46:51.590Z,30.94
2018-05-09T16:49:19.031Z,30.93
2018-05-09T16:51:46.465Z,30.86
2018-05-09T16:54:13.893Z,30.77
2018-05-09T16:56:41.312Z,30.71
2018-05-09T16:59:08.735Z,30.68
2018-05-09T17:01:36.212Z,30.61
2018-05-09T17:04:03.580Z,30.48
2018-05-09T17:06:31.016Z,30.40
2018-05-09T17:08:58.444Z,30.37
2018-05-09T17:11:25.865Z,30.27
2018-05-09T17:13:53.279Z,30.23
2018-05-09T17:16:20.696Z,30.13
2018-05-09T17:18:48.124Z,30.06
2018-05-09T17:21:33.168Z,29.99
2018-05-09T17:24:00.585Z,30.01
2018-05-09T17:26:28.001Z,30.02
2018-05-09T17:28:55.432Z,30.05
2018-05-09T17:31:22.849Z,29.97
2018-05-09T17:33:50.267Z,29.97
2018-05-09T17:36:17.682Z,29.93
2018-05-09T17:38:45.112Z,29.86
2018-05-09T17:41:12.528Z,29.75
2018-05-09T17:43:39.955Z,29.71
2018-05-09T17:46:07.383Z,29.62
2018-05-09T17:48:34.793Z,29.62
2018-05-09T17:51:02.225Z,29.59
2018-05-09T17:53:29.646Z,29.60
2018-05-09T17:55:57.069Z,29.56
2018-05-09T17:58:24.492Z,29.44
2018-05-09T18:00:51.918Z,29.34
2018-05-09T18:03:19.332Z,29.36
2018-05-09T18:05:46.752Z,29.31
2018-05-09T18:08:14.176Z,29.27
2018-05-09T18:10:41.604Z,29.27
2018-05-09T18:13:09.008Z,29.24
2018-05-09T18:15:36.436Z,29.14
2018-05-09T18:18:03.920Z,29.04
2018-05-09T18:20:31.345Z,28.95
2018-05-09T18:22:58.761Z,28.94
2018-05-09T18:25:26.196Z,28.90
2018-05-09T18:27:53.616Z,28.94
2018-05-09T18:30:21.033Z,28.93
2018-05-09T18:32:48.448Z,28.83
2018-05-09T18:35:15.877Z,28.77
2018-05-09T18:37:43.289Z,28.68
2018-05-09T18:40:10.738Z,28.64
2018-05-09T18:42:38.147Z,28.58
2018-05-09T18:45:05.573Z,28.51
2018-05-09T18:47:32.988Z,28.43
2018-05-09T18:50:00.416Z,28.34
2018-05-09T18:52:27.828Z,28.23
2018-05-09T18:54:55.256Z,28.18
2018-05-09T18:57:22.681Z,28.10
2018-05-09T18:59:50.192Z,28.05
2018-05-09T19:02:17.534Z,28.00
2018-05-09T19:04:44.964Z,27.99
2018-05-09T19:07:12.364Z,27.95
2018-05-09T19:09:39.789Z,27.84
2018-05-09T19:12:07.204Z,27.84
2018-05-09T19:14:34.631Z,27.76
2018-05-09T19:17:02.049Z,27.67
2018-05-09T19:19:29.477Z,27.60
2018-05-09T19:21:56.892Z,27.48
2018-05-09T19:24:24.311Z,27.41
2018-05-09T19:26:51.733Z,27.40
2018-05-09T19:29:19.139Z,27.38
2018-05-09T19:31:46.569Z,27.36
2018-05-09T19:34:13.992Z,27.30
2018-05-09T19:36:41.408Z,27.23
2018-05-09T19:39:08.829Z,27.15
2018-05-09T19:41:36.329Z,27.13
2018-05-09T19:44:03.667Z,27.10
2018-05-09T19:46:31.089Z,27.02
2018-05-09T19:48:58.501Z,26.98
2018-05-09T19:51:25.921Z,26.91
2018-05-09T19:53:53.339Z,26.81
2018-05-09T19:56:20.765Z,26.77
2018-05-09T19:58:48.184Z,26.70
2018-05-09T20:01:15.609Z,26.57
2018-05-09T20:03:43.026Z,26.52
2018-05-09T20:06:10.445Z,26.44
2018-05-09T20:08:37.961Z,26.41
2018-05-09T20:11:05.312Z,26.34
2018-05-09T20:13:32.729Z,26.26
2018-05-09T20:16:00.161Z,26.22
2018-05-09T20:18:27.605Z,26.15
2018-05-09T20:20:55.049Z,26.06
2018-05-09T20:23:22.464Z,25.94
2018-05-09T20:25:49.891Z,25.79
2018-05-09T20:28:17.312Z,25.68
2018-05-09T20:30:50.320Z,25.61
2018-05-09T20:33:17.720Z,25.46
2018-05-09T20:35:45.144Z,25.37
2018-05-09T20:38:12.561Z,25.28
2018-05-09T20:40:39.992Z,25.26
2018-05-09T20:43:07.404Z,25.23
2018-05-09T20:45:34.835Z,25.22
2018-05-09T20:48:02.253Z,25.18
2018-05-09T20:50:29.671Z,25.08
2018-05-09T20:52:57.088Z,25.03
2018-05-09T20:55:29.345Z,24.96
2018-05-09T20:57:56.760Z,24.90
2018-05-09T21:00:24.172Z,24.83
2018-05-09T21:02:51.595Z,24.75
2018-05-09T21:05:19.017Z,24.73
2018-05-09T21:07:58.191Z,24.73
2018-05-09T21:10:25.606Z,24.75
2018-05-09T21:12:53.030Z,24.73
2018-05-09T21:15:20.443Z,24.68
2018-05-09T21:17:47.864Z,24.60
2018-05-09T21:20:15.347Z,24.54
2018-05-09T21:22:42.716Z,24.47
2018-05-09T21:25:10.144Z,24.40
2018-05-09T21:27:37.646Z,24.34
2018-05-09T21:30:04.997Z,24.30
2018-05-09T21:32:32.420Z,24.22
2018-05-09T21:34:59.841Z,24.15
2018-05-09T21:37:27.260Z,24.13
2018-05-09T21:39:54.685Z,24.10
2018-05-09T21:42:22.109Z,24.06
2018-05-09T21:44:49.528Z,23.99
2018-05-09T21:47:16.944Z,23.95
2018-05-09T21:49:44.408Z,23.92
2018-05-09T21:52:11.778Z,23.92
2018-05-09T21:54:39.193Z,23.92
2018-05-09T21:57:06.619Z,23.88
2018-05-09T21:59:34.049Z,23.85
2018-05-09T22:02:01.474Z,23.84
2018-05-09T22:04:28.892Z,23.82
2018-05-09T22:06:56.320Z,23.75
2018-05-09T22:09:23.760Z,23.72
2018-05-09T22:11:51.181Z,23.69
2018-05-09T22:14:18.596Z,23.67
2018-05-09T22:16:46.025Z,23.63
2018-05-09T22:19:13.440Z,23.59
2018-05-09T22:21:40.870Z,23.51
2018-05-09T22:24:08.292Z,23.46
2018-05-09T22:26:35.705Z,23.40
2018-05-09T22:29:03.129Z,23.37
2018-05-09T22:31:30.542Z,23.41
2018-05-09T22:33:57.960Z,23.39
2018-05-09T22:36:25.377Z,23.32
2018-05-09T22:38:52.805Z,23.25
2018-05-09T22:41:20.208Z,23.23
2018-05-09T22:43:47.644Z,23.15
2018-05-09T22:46:15.049Z,23.13
2018-05-09T22:48:42.478Z,23.08
2018-05-09T22:51:09.889Z,23.04
2018-05-09T22:53:37.312Z,23.03
2018-05-09T22:56:04.726Z,23.03
2018-05-09T22:58:32.184Z,23.02
2018-05-09T23:00:59.608Z,23.00
2018-05-09T23:03:27.034Z,22.97
2018-05-09T23:05:54.446Z,22.93
2018-05-09T23:08:21.877Z,22.92
2018-05-09T23:10:49.292Z,22.87
2018-05-09T23:13:16.716Z,22.86
2018-05-09T23:15:44.133Z,22.84
2018-05-09T23:18:11.558Z,22.79
2018-05-09T23:20:38.963Z,22.72
2018-05-09T23:23:06.377Z,22.62
2018-05-09T23:25:33.797Z,22.58
2018-05-09T23:28:01.216Z,22.55
2018-05-09T23:30:28.641Z,22.52
2018-05-09T23:32:56.048Z,22.50
2018-05-09T23:35:23.476Z,22.50
2018-05-09T23:37:50.894Z,22.50
2018-05-09T23:40:18.311Z,22.50
2018-05-09T23:42:45.730Z,22.48
2018-05-09T23:45:13.156Z,22.44
2018-05-09T23:47:40.584Z,22.44
2018-05-09T23:50:08.009Z,22.39
2018-05-09T23:52:35.425Z,22.38
2018-05-09T23:55:02.853Z,22.40
2018-05-09T23:57:30.265Z,22.39
2018-05-09T23:59:57.688Z,22.37
